Time Latitude Longitude Accuracy (66% radius in meters) Altitude (meters) Speed (km/hour) Bearing (degrees) Battery (%) GPS flag
07:12:27 57.204431 60.120835 0 0 0 0 1 delete
07:12:26 57.204446 60.120861 0 0 0 0 1 delete
07:12:25 57.204393 60.120892 0 0 0 0 1 delete
07:12:24 57.204588 60.120992 0 0 0 0 1 delete
07:12:22 57.204593 60.121043 0 0 0 0 1 delete
07:12:20 57.204603 60.121092 0 0 0 0 1 delete
07:12:19 57.204597 60.121091 0 0 0 0 1 delete
07:12:17 57.204573 60.121054 0 0 0 0 1 delete
07:12:15 57.204554 60.121037 0 0 0 0 1 delete
07:12:13 57.204538 60.121014 0 0 0 0 1 delete
07:12:11 57.204531 60.120966 0 0 0 0 1 delete
07:12:09 57.204538 60.120901 0 0 0 0 1 delete
07:12:07 57.204536 60.120843 0 0 0 0 1 delete
07:12:05 57.204529 60.120794 0 0 0 0 1 delete
07:12:03 57.204520 60.120756 0 0 0 0 1 delete
07:12:01 57.204513 60.120720 0 0 0 0 1 delete
07:11:58 57.204507 60.120683 0 0 0 0 1 delete
07:11:55 57.204513 60.120647 0 0 0 0 1 delete
07:11:53 57.204539 60.120637 0 0 0 0 1 delete
07:11:52 57.204563 60.120639 0 0 0 0 1 delete
07:11:51 57.204594 60.120647 0 0 0 0 1 delete
07:11:50 57.204634 60.120672 0 0 0 0 1 delete
07:11:49 57.204685 60.120742 0 0 0 0 1 delete
07:11:44 57.204666 60.120751 0 0 0 0 1 delete
07:11:39 57.204649 60.120771 0 0 0 0 1 delete
07:11:34 57.204628 60.120787 0 0 0 0 1 delete
07:11:30 57.204614 60.120808 0 0 0 0 1 delete
07:11:26 57.204594 60.120854 0 0 0 0 1 delete
07:11:25 57.204594 60.120854 0 0 0 0 1 delete
07:11:23 57.204578 60.120822 0 0 0 0 1 delete
07:11:21 57.204567 60.120794 0 0 0 0 1 delete
07:11:19 57.204550 60.120766 0 0 0 0 1 delete
07:11:17 57.204533 60.120769 0 0 0 0 1 delete
07:11:15 57.204506 60.120770 0 0 0 0 1 delete
07:11:11 57.204475 60.120768 0 0 0 0 1 delete
07:11:07 57.204493 60.120756 0 0 0 0 1 delete
07:11:06 57.204479 60.120789 0 0 0 0 1 delete
07:11:05 57.204466 60.120824 0 0 0 0 1 delete
07:11:04 57.204451 60.120861 0 0 0 0 1 delete
07:11:03 57.204433 60.120904 0 0 0 0 1 delete
07:11:02 57.204424 60.120940 0 0 0 0 1 delete
07:11:00 57.204412 60.120980 0 0 0 0 1 delete
07:10:57 57.204376 60.120977 0 0 0 0 1 delete
07:10:55 57.204351 60.120964 0 0 0 0 1 delete
07:10:53 57.204327 60.120951 0 0 0 0 1 delete
07:10:51 57.204298 60.120924 0 0 0 0 1 delete
07:10:50 57.204280 60.120900 0 0 0 0 1 delete
07:10:49 57.204254 60.120876 0 0 0 0 1 delete
07:10:48 57.204224 60.120845 0 0 0 0 1 delete
07:10:46 57.204169 60.120746 0 0 0 0 1 delete